Terminal Aerodrome Forecast
Issued by NWS Charleston, WV

Current Version | Previous Version | Graphics & Text | Print | Product List | Glossary On
Versions: 1 2 3 4 5 6 7 8 9 10 11 12 13 14 15 16 17 18 19 20 21 22 23 24 25 26 27
000
FTUS41 KRLX 142327
TAFPKB
TAF
KPKB 142327Z 1500/1524 20008KT 4SM -RA BR BKN050 OVC080
     FM150700 22007KT P6SM OVC003
     FM151100 23009G15KT P6SM OVC010 PROB30 1512/1516 P6SM -SHRA
      OVC015=

USA.gov is the U.S. government's official web portal to all federal, state and local government web resources and services.